N519AR KORL-KORL
Flight info
| Callsign | N519AR |
|---|---|
| Flight time | 0h 18m |
| Altitude | VFR |
| Route | |
| Aircraft | C172/L-DOV/C |
Departure
| Time | 2026-04-25 01:27 |
|---|---|
| Airport | Orlando Executive Airport (KORL) |
Arrival
| Time | 2026-04-25 01:46 |
|---|---|
| Airport | Orlando Executive Airport (KORL) |
| Time | Latitude | Longitude | Altitude | Speed | Heading |
|---|---|---|---|---|---|
| 2026-04-25 01:14 | 28.54753 | -81.33540 | 112 ft | 0 kts | 150° |
| 2026-04-25 01:15 | 28.54751 | -81.33539 | 112 ft | 3 kts | 154° |
| 2026-04-25 01:15 | 28.54724 | -81.33577 | 112 ft | 10 kts | 239° |
| 2026-04-25 01:16 | 28.54669 | -81.33632 | 111 ft | 3 kts | 225° |
| 2026-04-25 01:16 | 28.54669 | -81.33633 | 111 ft | 0 kts | 225° |
| 2026-04-25 01:23 | 28.54620 | -81.33645 | 110 ft | 13 kts | 132° |
| 2026-04-25 01:23 | 28.54552 | -81.33612 | 109 ft | 14 kts | 245° |
| 2026-04-25 01:23 | 28.54504 | -81.33740 | 107 ft | 20 kts | 244° |
| 2026-04-25 01:24 | 28.54426 | -81.33870 | 107 ft | 16 kts | 225° |
| 2026-04-25 01:24 | 28.54378 | -81.33913 | 106 ft | 11 kts | 250° |
| 2026-04-25 01:24 | 28.54361 | -81.33956 | 106 ft | 5 kts | 173° |
| 2026-04-25 01:24 | 28.54354 | -81.33955 | 106 ft | 0 kts | 158° |
| 2026-04-25 01:25 | 28.54332 | -81.33945 | 105 ft | 12 kts | 155° |
| 2026-04-25 01:26 | 28.54304 | -81.33853 | 105 ft | 17 kts | 78° |
| 2026-04-25 01:26 | 28.54370 | -81.33691 | 106 ft | 40 kts | 65° |
| 2026-04-25 01:26 | 28.54540 | -81.33259 | 129 ft | 75 kts | 68° |
| 2026-04-25 01:26 | 28.54808 | -81.32691 | 258 ft | 88 kts | 59° |
| 2026-04-25 01:27 | 28.55182 | -81.32079 | 327 ft | 97 kts | 62° |
| 2026-04-25 01:27 | 28.55689 | -81.31666 | 621 ft | 93 kts | 21° |
| 2026-04-25 01:27 | 28.56329 | -81.31739 | 839 ft | 98 kts | 347° |
| 2026-04-25 01:28 | 28.57257 | -81.32846 | 1064 ft | 111 kts | 284° |
| 2026-04-25 01:28 | 28.57319 | -81.33414 | 1063 ft | 108 kts | 255° |
| 2026-04-25 01:28 | 28.56885 | -81.34411 | 1104 ft | 100 kts | 221° |
| 2026-04-25 01:28 | 28.56397 | -81.35020 | 1022 ft | 105 kts | 216° |
| 2026-04-25 01:29 | 28.55867 | -81.35593 | 1018 ft | 109 kts | 217° |
| 2026-04-25 01:29 | 28.55285 | -81.36182 | 993 ft | 113 kts | 214° |
| 2026-04-25 01:29 | 28.54664 | -81.36732 | 982 ft | 112 kts | 207° |
| 2026-04-25 01:29 | 28.53990 | -81.37200 | 979 ft | 112 kts | 204° |
| 2026-04-25 01:30 | 28.53578 | -81.37577 | 958 ft | 116 kts | 216° |
| 2026-04-25 01:30 | 28.53004 | -81.38229 | 938 ft | 118 kts | 217° |
| 2026-04-25 01:30 | 28.52398 | -81.38869 | 866 ft | 120 kts | 217° |
| 2026-04-25 01:30 | 28.51891 | -81.39597 | 810 ft | 127 kts | 245° |
| 2026-04-25 01:31 | 28.51615 | -81.40547 | 837 ft | 121 kts | 244° |
| 2026-04-25 01:31 | 28.51270 | -81.41389 | 806 ft | 117 kts | 229° |
| 2026-04-25 01:31 | 28.50838 | -81.42127 | 871 ft | 109 kts | 232° |
| 2026-04-25 01:31 | 28.50428 | -81.42855 | 862 ft | 105 kts | 230° |
| 2026-04-25 01:32 | 28.49994 | -81.43503 | 889 ft | 99 kts | 225° |
| 2026-04-25 01:32 | 28.49582 | -81.44205 | 822 ft | 111 kts | 231° |
| 2026-04-25 01:32 | 28.49144 | -81.44906 | 889 ft | 107 kts | 224° |
| 2026-04-25 01:32 | 28.48624 | -81.45517 | 940 ft | 105 kts | 217° |
| 2026-04-25 01:33 | 28.48090 | -81.46068 | 865 ft | 103 kts | 212° |
| 2026-04-25 01:33 | 28.47503 | -81.46565 | 838 ft | 109 kts | 199° |
| 2026-04-25 01:33 | 28.46801 | -81.46521 | 807 ft | 96 kts | 140° |
| 2026-04-25 01:33 | 28.46519 | -81.45900 | 701 ft | 99 kts | 85° |
| 2026-04-25 01:34 | 28.46818 | -81.45211 | 590 ft | 102 kts | 35° |
| 2026-04-25 01:34 | 28.47536 | -81.45007 | 538 ft | 119 kts | 355° |
| 2026-04-25 01:34 | 28.48264 | -81.45484 | 528 ft | 124 kts | 316° |
| 2026-04-25 01:34 | 28.48450 | -81.46307 | 759 ft | 104 kts | 229° |
| 2026-04-25 01:35 | 28.47897 | -81.46774 | 883 ft | 100 kts | 194° |
| 2026-04-25 01:35 | 28.47192 | -81.46662 | 806 ft | 108 kts | 146° |
| 2026-04-25 01:35 | 28.47073 | -81.45915 | 814 ft | 110 kts | 70° |
| 2026-04-25 01:35 | 28.47740 | -81.45645 | 932 ft | 126 kts | 343° |
| 2026-04-25 01:36 | 28.48204 | -81.46420 | 1002 ft | 125 kts | 265° |
| 2026-04-25 01:36 | 28.47987 | -81.47236 | 930 ft | 97 kts | 215° |
| 2026-04-25 01:36 | 28.47465 | -81.47252 | 851 ft | 73 kts | 134° |
| 2026-04-25 01:36 | 28.47243 | -81.46714 | 652 ft | 83 kts | 88° |
| 2026-04-25 01:37 | 28.47572 | -81.46204 | 569 ft | 96 kts | 25° |
| 2026-04-25 01:37 | 28.48235 | -81.46210 | 540 ft | 104 kts | 342° |
| 2026-04-25 01:37 | 28.48661 | -81.46795 | 486 ft | 100 kts | 258° |
| 2026-04-25 01:37 | 28.48233 | -81.47223 | 563 ft | 83 kts | 184° |
| 2026-04-25 01:38 | 28.47715 | -81.47112 | 781 ft | 74 kts | 134° |
| 2026-04-25 01:38 | 28.47611 | -81.46517 | 737 ft | 105 kts | 68° |
| 2026-04-25 01:38 | 28.48170 | -81.46226 | 955 ft | 89 kts | 358° |
| 2026-04-25 01:38 | 28.48707 | -81.46723 | 791 ft | 112 kts | 308° |
| 2026-04-25 01:39 | 28.49131 | -81.47474 | 752 ft | 114 kts | 294° |
| 2026-04-25 01:39 | 28.49408 | -81.48335 | 697 ft | 125 kts | 289° |
| 2026-04-25 01:39 | 28.49992 | -81.49079 | 757 ft | 128 kts | 342° |
| 2026-04-25 01:39 | 28.50788 | -81.48933 | 864 ft | 119 kts | 40° |
| 2026-04-25 01:40 | 28.51390 | -81.48328 | 992 ft | 114 kts | 47° |
| 2026-04-25 01:40 | 28.52021 | -81.47783 | 1142 ft | 112 kts | 38° |
| 2026-04-25 01:40 | 28.52738 | -81.47382 | 1244 ft | 119 kts | 32° |
| 2026-04-25 01:40 | 28.53457 | -81.46920 | 1146 ft | 111 kts | 64° |
| 2026-04-25 01:41 | 28.53315 | -81.46241 | 1007 ft | 98 kts | 131° |
| 2026-04-25 01:41 | 28.52878 | -81.45655 | 845 ft | 100 kts | 123° |
| 2026-04-25 01:41 | 28.52633 | -81.44949 | 786 ft | 93 kts | 117° |
| 2026-04-25 01:41 | 28.52458 | -81.44222 | 766 ft | 102 kts | 97° |
| 2026-04-25 01:42 | 28.52790 | -81.43522 | 818 ft | 111 kts | 56° |
| 2026-04-25 01:42 | 28.53088 | -81.42729 | 810 ft | 103 kts | 95° |
| 2026-04-25 01:42 | 28.52956 | -81.41987 | 765 ft | 91 kts | 104° |
| 2026-04-25 01:42 | 28.52860 | -81.41262 | 745 ft | 93 kts | 91° |
| 2026-04-25 01:43 | 28.52963 | -81.40530 | 655 ft | 99 kts | 87° |
| 2026-04-25 01:43 | 28.53022 | -81.39786 | 651 ft | 94 kts | 90° |
| 2026-04-25 01:43 | 28.53049 | -81.39044 | 636 ft | 89 kts | 92° |
| 2026-04-25 01:43 | 28.53043 | -81.38364 | 654 ft | 85 kts | 96° |
| 2026-04-25 01:44 | 28.53080 | -81.37684 | 608 ft | 89 kts | 84° |
| 2026-04-25 01:44 | 28.53243 | -81.37008 | 525 ft | 88 kts | 78° |
| 2026-04-25 01:44 | 28.53433 | -81.36378 | 449 ft | 81 kts | 73° |
| 2026-04-25 01:44 | 28.53614 | -81.35803 | 397 ft | 74 kts | 73° |
| 2026-04-25 01:45 | 28.53810 | -81.35299 | 356 ft | 70 kts | 74° |
| 2026-04-25 01:45 | 28.53996 | -81.34779 | 297 ft | 72 kts | 72° |
| 2026-04-25 01:45 | 28.54182 | -81.34239 | 224 ft | 73 kts | 75° |
| 2026-04-25 01:45 | 28.54369 | -81.33729 | 148 ft | 64 kts | 74° |
| 2026-04-25 01:46 | 28.54521 | -81.33333 | 114 ft | 47 kts | 77° |
| 2026-04-25 01:46 | 28.54610 | -81.33146 | 114 ft | 15 kts | 1° |
| 2026-04-25 01:46 | 28.54675 | -81.33154 | 114 ft | 7 kts | 352° |
| 2026-04-25 01:46 | 28.54680 | -81.33155 | 114 ft | 0 kts | 352° |
| 2026-04-25 01:47 | 28.54699 | -81.33158 | 113 ft | 10 kts | 349° |
| 2026-04-25 01:47 | 28.54711 | -81.33241 | 112 ft | 16 kts | 233° |
| 2026-04-25 01:47 | 28.54670 | -81.33307 | 111 ft | 4 kts | 275° |
| 2026-04-25 01:47 | 28.54698 | -81.33331 | 111 ft | 11 kts | 318° |
| 2026-04-25 01:48 | 28.54698 | -81.33429 | 110 ft | 13 kts | 266° |
| 2026-04-25 01:48 | 28.54690 | -81.33551 | 111 ft | 14 kts | 265° |
| 2026-04-25 01:48 | 28.54713 | -81.33603 | 112 ft | 7 kts | 348° |
| 2026-04-25 01:48 | 28.54744 | -81.33582 | 112 ft | 8 kts | 54° |
| 2026-04-25 01:49 | 28.54817 | -81.33502 | 113 ft | 19 kts | 39° |
| 2026-04-25 01:49 | 28.54897 | -81.33427 | 115 ft | 7 kts | 42° |
| 2026-04-25 01:49 | 28.54916 | -81.33435 | 115 ft | 5 kts | 291° |
| 2026-04-25 01:49 | 28.54932 | -81.33459 | 114 ft | 4 kts | 311° |
| 2026-04-25 01:50 | 28.54952 | -81.33486 | 116 ft | 4 kts | 311° |
| 2026-04-25 01:50 | 28.54955 | -81.33490 | 116 ft | 0 kts | 311° |